Thunder radar more information blitzortung!


Radar de pluja more information rain snow radar


Visita la nostra xarxa de llocs de meteo:

Template documentation
and downloads

And another site



No particular awareness of the weather is required.    There are no Weather-warnings

Pagina Historial Weather Underground text

Diari Resum Juny 9, 2016 Unitats:  Mètric    Imperial   Tant
« Previous Dia
SegĂźent Dia »
Diari Setmana Mensual Anual Personalitzada
  Maxima: Minima: Media:
Temperatura: -17.8 °C -8.8 °C -3.6 °C
Punt de rosada: -17.8 °C -12.8 °C -11.3 °C
Humitat: Humidity % 28 % 43 %
Wind Speed: 0 km/h 0 km/h 12.1 km/h
RĂ fegues de vent: 0 km/h - -
Vent:- - South
Pression baro: 0 hPa 34164.7 hPa -
Precipitacions: 0 mm    
Historical Graphs
 
 
Dades de taula per Juny 9, 2016
Temps Temperatura Punt de rosada Pression baro Vent Wind Speed RĂ fegues de vent Humitat Rainfall Rate (Hourly)
-17.8 °C -17.8 °C 0 hPa Calm     Humidity % 0 mm
00:00 -6.2 °C -10.7 °C 34395 hPa SW 5.1 km/h 7.7 km/h 60 % 0 mm
00:05 -6.2 °C -10.7 °C 34395 hPa SW 5.1 km/h 7.7 km/h 60 % 0 mm
00:15 -8.4 °C -11.2 °C 34361.1 hPa Calm     73 % 0 mm
00:25 -8.6 °C -11.2 °C 34361.1 hPa Calm     74 % 0 mm
00:35 -8.7 °C -11.2 °C 34395 hPa Calm     75 % 0 mm
00:45 -8.8 °C -11.2 °C 34395 hPa Calm     76 % 0 mm
00:55 -8.8 °C -11.1 °C 34361.1 hPa Calm     77 % 0 mm
01:05 -8.8 °C -11 °C 34361.1 hPa Calm     77 % 0 mm
01:15 -8.8 °C -11 °C 34361.1 hPa Calm     77 % 0 mm
01:25 -8.8 °C -11 °C 34361.1 hPa Calm     77 % 0 mm
01:35 -8.8 °C -11 °C 34361.1 hPa Calm     77 % 0 mm
01:45 -8.7 °C -11.1 °C 34361.1 hPa Calm     76 % 0 mm
01:55 -8.7 °C -10.9 °C 34395 hPa Calm     77 % 0 mm
02:05 -8.7 °C -11.1 °C 34361.1 hPa Calm     76 % 0 mm
02:15 -8.6 °C -10.9 °C 34361.1 hPa SW 2.6 km/h 2.6 km/h 77 % 0 mm
02:25 -8.5 °C -10.7 °C 34361.1 hPa SW 2.6 km/h 2.6 km/h 77 % 0 mm
02:35 -8.2 °C -10.6 °C 34361.1 hPa SSW 2.6 km/h 2.6 km/h 76 % 0 mm
02:45 -7.8 °C -10.3 °C 34361.1 hPa Calm   2.6 km/h 75 % 0 mm
02:55 -7.6 °C -10.2 °C 34361.1 hPa South 5.1 km/h 7.7 km/h 74 % 0 mm
03:05 -7.1 °C -9.9 °C 34361.1 hPa ESE 2.6 km/h 5.1 km/h 72 % 0 mm
03:15 -6.9 °C -9.9 °C 34361.1 hPa Calm   7.7 km/h 71 % 0 mm
03:25 -7.2 °C -10.2 °C 34361.1 hPa SW 5.1 km/h 7.7 km/h 71 % 0 mm
03:35 -6.9 °C -10.1 °C 34361.1 hPa SW 2.6 km/h 5.1 km/h 70 % 0 mm
03:45 -6.3 °C -9.7 °C 34361.1 hPa SSW 2.6 km/h 7.7 km/h 68 % 0 mm
03:55 -5.8 °C -9.4 °C 34361.1 hPa East 2.6 km/h 7.7 km/h 67 % 0 mm
04:05 -5.5 °C -9.3 °C 34361.1 hPa Calm   5.1 km/h 65 % 0 mm
04:15 -5.3 °C -9.3 °C 34361.1 hPa South 2.6 km/h 5.1 km/h 64 % 0 mm
04:25 -4.9 °C -9.2 °C 34361.1 hPa South 2.6 km/h 5.1 km/h 62 % 0 mm
04:35 -4.7 °C -9.1 °C 34361.1 hPa East 2.6 km/h 7.7 km/h 61 % 0 mm
04:45 -4.4 °C -9.2 °C 34361.1 hPa NNE 2.6 km/h 7.7 km/h 59 % 0 mm
04:55 -4.1 °C -9 °C 34361.1 hPa ENE 2.6 km/h 7.7 km/h 58 % 0 mm
05:05 -4 °C -9.1 °C 34361.1 hPa East 2.6 km/h 7.7 km/h 57 % 0 mm
05:15 -3.8 °C -9.6 °C 34361.1 hPa ENE 7.7 km/h 10.3 km/h 53 % 0 mm
05:25 -3.7 °C -9.6 °C 34361.1 hPa NE 12.9 km/h 12.9 km/h 52 % 0 mm
05:35 -3.6 °C -9.6 °C 34361.1 hPa NE 7.7 km/h 7.7 km/h 51 % 0 mm
05:45 -3.3 °C -9.6 °C 34361.1 hPa NE 7.7 km/h 18.2 km/h 50 % 0 mm
05:55 -3.3 °C -9.7 °C 34361.1 hPa ENE 15.6 km/h 15.6 km/h 49 % 0 mm
10:56 -3.3 °C -9.8 °C 34361.1 hPa ESE 14 km/h 14 km/h 49 % 0 mm
11:01 -3.3 °C -9.7 °C 34327.3 hPa ESE 26.9 km/h 26.9 km/h 49 % 0 mm
11:06 -3.2 °C -9.8 °C 34327.3 hPa ENE 10.3 km/h 10.3 km/h 48 % 0 mm
11:11 -3.1 °C -9.7 °C 34327.3 hPa ENE 15 km/h 15 km/h 48 % 0 mm
11:16 -2.9 °C -9.6 °C 34327.3 hPa ENE 15 km/h 16.1 km/h 48 % 0 mm
11:21 -3 °C -9.8 °C 34327.3 hPa ENE 20.9 km/h 20.9 km/h 47 % 0 mm
11:26 -2.9 °C -9.9 °C 34327.3 hPa ENE 20.9 km/h 20.9 km/h 46 % 0 mm
11:31 -2.7 °C -10.1 °C 34327.3 hPa ENE 15 km/h 15 km/h 44 % 0 mm
11:36 -2.6 °C -9.8 °C 34327.3 hPa ENE 23.8 km/h 23.8 km/h 45 % 0 mm
11:46 -2.5 °C -10.1 °C 34327.3 hPa North 15 km/h 15 km/h 43 % 0 mm
11:51 -2.4 °C -10.1 °C 34327.3 hPa ESE 23.8 km/h 23.8 km/h 43 % 0 mm
11:56 -2.5 °C -10.1 °C 34327.3 hPa ESE 23.8 km/h 23.8 km/h 43 % 0 mm
12:01 -2.5 °C -10.3 °C 34327.3 hPa ENE 17.9 km/h 17.9 km/h 42 % 0 mm
12:06 -2.5 °C -10.3 °C 34327.3 hPa NE 15 km/h 15 km/h 42 % 0 mm
12:11 -2.3 °C -10.2 °C 34327.3 hPa ESE 20.9 km/h 20.9 km/h 42 % 0 mm
12:16 -2.2 °C -10.3 °C 34327.3 hPa NNE 20.9 km/h 20.9 km/h 41 % 0 mm
12:21 -2.3 °C -10.4 °C 34327.3 hPa ESE 23.8 km/h 23.8 km/h 41 % 0 mm
12:26 -2.4 °C -10.4 °C 34327.3 hPa SE 19.2 km/h 19.2 km/h 41 % 0 mm
12:36 -2.2 °C -10.4 °C 34293.4 hPa ENE 20.9 km/h 20.9 km/h 40 % 0 mm
12:41 -2.1 °C -10.4 °C 34293.4 hPa East 11.9 km/h 11.9 km/h 40 % 0 mm
12:46 -2.2 °C -10.4 °C 34293.4 hPa NE 9 km/h 9.3 km/h 40 % 0 mm
12:51 -2.1 °C -10.6 °C 34293.4 hPa ENE 15 km/h 15 km/h 39 % 0 mm
12:56 -2.2 °C -10.7 °C 34293.4 hPa ENE 11.9 km/h 12.7 km/h 39 % 0 mm
13:01 -2 °C -10.3 °C 34256.2 hPa East 11.9 km/h 12.7 km/h 40 % 0 mm
13:06 -2.1 °C -10.8 °C 34256.2 hPa ESE 23.8 km/h 23.8 km/h 38 % 0 mm
13:11 -1.8 °C -10.3 °C 34256.2 hPa ENE 10.3 km/h 11.1 km/h 39 % 0 mm
13:21 -1.9 °C -10.4 °C 34222.3 hPa ESE 25.4 km/h 25.4 km/h 39 % 0 mm
13:31 -1.7 °C -10.7 °C 34256.2 hPa SE 19.6 km/h 19.6 km/h 37 % 0 mm
13:36 -1.9 °C -10.6 °C 34256.2 hPa ENE 23.8 km/h 23.8 km/h 38 % 0 mm
13:41 -1.8 °C -10.6 °C 34256.2 hPa SW 23.8 km/h 23.8 km/h 38 % 0 mm
13:46 -1.4 °C -10.7 °C 34256.2 hPa WSW 11.9 km/h 11.9 km/h 36 % 0 mm
13:51 -1.3 °C -10.8 °C 34256.2 hPa WSW 19.6 km/h 19.6 km/h 35 % 0 mm
13:56 -1.3 °C -11.1 °C 34256.2 hPa WSW 17.9 km/h 17.9 km/h 34 % 0 mm
14:01 -1.3 °C -11.1 °C 34256.2 hPa SW 15 km/h 15 km/h 34 % 0 mm
14:06 -1.2 °C -10.9 °C 34256.2 hPa WSW 11.9 km/h 11.9 km/h 34 % 0 mm
14:11 -1 °C -11 °C 34256.2 hPa SSW 15 km/h 15 km/h 33 % 0 mm
14:16 -1.3 °C -11.3 °C 34256.2 hPa WSW 9 km/h 9 km/h 33 % 0 mm
14:21 -0.6 °C -10.9 °C 34256.2 hPa SW 23.8 km/h 23.8 km/h 32 % 0 mm
14:26 -0.3 °C -11 °C 34256.2 hPa ESE 15 km/h 15 km/h 31 % 0 mm
14:31 -0.4 °C -11.1 °C 34256.2 hPa SW 9 km/h 9 km/h 31 % 0 mm
14:41 -0.3 °C -11.3 °C 34256.2 hPa South 15 km/h 15 km/h 30 % 0 mm
14:46 -0.1 °C -11 °C 34256.2 hPa West 9 km/h 9 km/h 30 % 0 mm
14:51 0 °C -10.9 °C 34256.2 hPa South 15 km/h 15 km/h 30 % 0 mm
14:56 -0.2 °C -11.2 °C 34256.2 hPa SW 24.3 km/h 24.3 km/h 30 % 0 mm
15:01 -0.4 °C -11.3 °C 34256.2 hPa SSW 11.9 km/h 11.9 km/h 30 % 0 mm
15:06 -0.2 °C -11.4 °C 34256.2 hPa WSW 19.2 km/h 19.2 km/h 29 % 0 mm
15:11 -0.1 °C -11 °C 34256.2 hPa NW 9 km/h 9 km/h 30 % 0 mm
15:16 0.2 °C -11.1 °C 34222.3 hPa SW 15 km/h 15 km/h 29 % 0 mm
15:22 0.3 °C -11 °C 34222.3 hPa WSW 15 km/h 15 km/h 29 % 0 mm
15:27 0.2 °C -11.4 °C 34222.3 hPa SW 17.9 km/h 17.9 km/h 28 % 0 mm
15:32 0.2 °C -11.1 °C 34198.6 hPa NNW 11.9 km/h 11.9 km/h 29 % 0 mm
15:37 0.1 °C -11.5 °C 34198.6 hPa SSW 17.9 km/h 17.9 km/h 28 % 0 mm
15:42 -0.3 °C -11.6 °C 34198.6 hPa WSW 6 km/h 6 km/h 29 % 0 mm
15:47 -0.2 °C -11.4 °C 34198.6 hPa SW 9 km/h 9 km/h 29 % 0 mm
15:52 -0.1 °C -11.3 °C 34198.6 hPa SSW 11.9 km/h 11.9 km/h 29 % 0 mm
15:57 0.2 °C -11.1 °C 34198.6 hPa WSW 9 km/h 9 km/h 29 % 0 mm
16:02 0.3 °C -11.3 °C 34198.6 hPa WSW 15 km/h 15 km/h 28 % 0 mm
16:07 -0.2 °C -11.4 °C 34198.6 hPa WSW 23.8 km/h 23.8 km/h 29 % 0 mm
16:22 -0.6 °C -11.7 °C 34222.3 hPa SSW 9.3 km/h 9.3 km/h 29 % 0 mm
16:27 -0.7 °C -11.9 °C 34222.3 hPa West 23.8 km/h 23.8 km/h 29 % 0 mm
16:32 -0.6 °C -11.7 °C 34164.7 hPa South 23.8 km/h 23.8 km/h 29 % 0 mm
16:37 -0.7 °C -11.8 °C 34164.7 hPa SSE 11.9 km/h 11.9 km/h 29 % 0 mm
16:42 -0.4 °C -11.6 °C 34164.7 hPa SSE 15 km/h 15 km/h 29 % 0 mm
16:47 -0.7 °C -11.8 °C 34198.6 hPa SSE 9 km/h 9.8 km/h 29 % 0 mm
16:52 -0.7 °C -11.8 °C 34198.6 hPa WSW 15 km/h 15 km/h 29 % 0 mm
17:02 -0.4 °C -11.6 °C 34198.6 hPa SW 11.9 km/h 11.9 km/h 29 % 0 mm
17:07 -0.5 °C -11.7 °C 34198.6 hPa WSW 16.1 km/h 16.1 km/h 29 % 0 mm
17:12 -0.5 °C -11.7 °C 34198.6 hPa ESE 11.9 km/h 11.9 km/h 29 % 0 mm
17:17 -0.3 °C -11.5 °C 34198.6 hPa SSE 15.6 km/h 15.6 km/h 29 % 0 mm
17:22 -0.2 °C -11.4 °C 34198.6 hPa SW 9 km/h 9 km/h 29 % 0 mm
17:27 -0.5 °C -11.7 °C 34198.6 hPa ESE 29 km/h 29 km/h 29 % 0 mm
17:32 -0.3 °C -11.6 °C 34198.6 hPa South 23.8 km/h 23.8 km/h 29 % 0 mm
17:37 -0.2 °C -11.4 °C 34198.6 hPa SW 16.1 km/h 16.1 km/h 29 % 0 mm
17:42 -0.4 °C -11.9 °C 34198.6 hPa WSW 15 km/h 15 km/h 28 % 0 mm
17:47 -0.4 °C -11.6 °C 34198.6 hPa SSW 6 km/h 6 km/h 29 % 0 mm
17:52 -0.7 °C -12.2 °C 34198.6 hPa SSW 17.9 km/h 17.9 km/h 28 % 0 mm
17:57 -0.9 °C -12.3 °C 34198.6 hPa SSW 20.9 km/h 20.9 km/h 28 % 0 mm
18:02 -0.9 °C -12.3 °C 34198.6 hPa SSW 15 km/h 15 km/h 28 % 0 mm
18:07 -1.1 °C -12.4 °C 34198.6 hPa SSW 14.5 km/h 14.5 km/h 28 % 0 mm
18:12 -1.2 °C -12.3 °C 34198.6 hPa SW 28.2 km/h 28.2 km/h 29 % 0 mm
18:18 -1.4 °C -12.4 °C 34164.7 hPa WNW 20.9 km/h 20.9 km/h 29 % 0 mm
18:23 -1.2 °C -12.3 °C 34164.7 hPa SW 20.9 km/h 20.9 km/h 29 % 0 mm
18:28 -1.4 °C -12.4 °C 34164.7 hPa SW 17.9 km/h 17.9 km/h 29 % 0 mm
18:33 -1.6 °C -12.6 °C 34198.6 hPa SW 11.9 km/h 11.9 km/h 29 % 0 mm
18:38 -1.6 °C -12.6 °C 34198.6 hPa WSW 25.9 km/h 25.9 km/h 29 % 0 mm
18:43 -1.8 °C -12.5 °C 34198.6 hPa South 25.9 km/h 25.9 km/h 30 % 0 mm
18:48 -1.8 °C -12.5 °C 34198.6 hPa SW 27.2 km/h 27.2 km/h 30 % 0 mm
18:53 -1.8 °C -12.6 °C 34198.6 hPa SSW 17.9 km/h 17.9 km/h 30 % 0 mm
18:58 -2.1 °C -12.8 °C 34198.6 hPa SSW 19.6 km/h 19.6 km/h 30 % 0 mm
19:03 -2.1 °C -12.8 °C 34198.6 hPa SW 23.8 km/h 23.8 km/h 30 % 0 mm
19:08 -2.1 °C -12.8 °C 34198.6 hPa SW 17.9 km/h 17.9 km/h 30 % 0 mm
19:10 -5.5 °C -11.7 °C 34256.2 hPa ENE 15.6 km/h 15.6 km/h 49 % 0 mm
19:13 -2.1 °C -12.8 °C 34198.6 hPa WSW 26.9 km/h 26.9 km/h 30 % 0 mm
19:18 -2.1 °C -12.8 °C 34164.7 hPa WSW 15 km/h 17.4 km/h 30 % 0 mm
19:20 -5.5 °C -11.7 °C 34256.2 hPa ENE 15.6 km/h 15.6 km/h 49 % 0 mm
19:23 -2.9 °C -12.7 °C 34164.7 hPa SW 25.1 km/h 25.1 km/h 33 % 0 mm
19:28 -3.1 °C -12.6 °C 34164.7 hPa WSW 23.8 km/h 23.8 km/h 34 % 0 mm
19:30 -5.4 °C -11.5 °C 34256.2 hPa ENE 15.6 km/h 15.6 km/h 50 % 0 mm
19:33 -3.1 °C -12.6 °C 34198.6 hPa SSW 29.8 km/h 29.8 km/h 34 % 0 mm
19:38 -3.3 °C -12.6 °C 34198.6 hPa SW 26.9 km/h 26.9 km/h 35 % 0 mm
19:40 -5.5 °C -11.6 °C 34256.2 hPa ENE 15.6 km/h 15.6 km/h 50 % 0 mm
19:43 -3.3 °C -12.6 °C 34198.6 hPa SW 15.6 km/h 15.6 km/h 35 % 0 mm
19:48 -3.5 °C -12.3 °C 34198.6 hPa SW 11.9 km/h 11.9 km/h 37 % 0 mm
19:50 -5.5 °C -11.6 °C 34256.2 hPa ENE 15.6 km/h 15.6 km/h 50 % 0 mm
19:53 -3.5 °C -12.3 °C 34198.6 hPa SSW 16.6 km/h 16.6 km/h 37 % 0 mm
19:58 -3.6 °C -12.2 °C 34198.6 hPa WSW 20.9 km/h 20.9 km/h 38 % 0 mm
20:00 -5.5 °C -11.6 °C 34256.2 hPa ENE 15.6 km/h 15.6 km/h 50 % 0 mm
20:03 -3.7 °C -12.2 °C 34198.6 hPa SW 17.9 km/h 17.9 km/h 38 % 0 mm
20:08 -3.7 °C -12.2 °C 34198.6 hPa SW 22 km/h 22 km/h 38 % 0 mm
20:10 -5.6 °C -11.6 °C 34256.2 hPa ENE 15.6 km/h 15.6 km/h 50 % 0 mm
20:13 -3.7 °C -12.2 °C 34198.6 hPa SW 17.9 km/h 17.9 km/h 38 % 0 mm
20:18 -3.7 °C -12.2 °C 34198.6 hPa WSW 14 km/h 14 km/h 38 % 0 mm
20:20 -5.6 °C -11.7 °C 34256.2 hPa ENE 15.6 km/h 15.6 km/h 50 % 0 mm
20:23 -3.7 °C -12.2 °C 34198.6 hPa SW 6 km/h 6 km/h 38 % 0 mm
20:28 -3.7 °C -12.2 °C 34198.6 hPa SW 9 km/h 9.3 km/h 38 % 0 mm
20:30 -5.7 °C -11.7 °C 34222.3 hPa ENE 15.6 km/h 15.6 km/h 50 % 0 mm
20:33 -4.1 °C -11.7 °C 34198.6 hPa WSW 6 km/h 6.8 km/h 42 % 0 mm
20:38 -4.1 °C -11.7 °C 34198.6 hPa SW 9.3 km/h 9.3 km/h 42 % 0 mm
20:40 -5.8 °C -11.7 °C 34222.3 hPa ENE 15.6 km/h 15.6 km/h 51 % 0 mm
20:43 -4.1 °C -11.7 °C 34198.6 hPa WSW 9 km/h 9 km/h 42 % 0 mm
20:48 -4.1 °C -11.7 °C 34198.6 hPa SW 9 km/h 9 km/h 42 % 0 mm
20:49 -4.1 °C -11.7 °C 34198.6 hPa SW 9 km/h 9 km/h 42 % 0 mm
20:50 -5.8 °C -11.7 °C 34222.3 hPa East 5.1 km/h 5.1 km/h 51 % 0 mm
20:54 -4.3 °C -11.9 °C 34198.6 hPa SW 7.6 km/h 9.8 km/h 42 % 0 mm
20:59 -4.3 °C -11.9 °C 34198.6 hPa SW 7.6 km/h 9.8 km/h 42 % 0 mm
21:00 -5.9 °C -11.8 °C 34222.3 hPa ESE 5.1 km/h 5.1 km/h 51 % 0 mm
21:04 -4.3 °C -11.9 °C 34198.6 hPa SW 7.6 km/h 9.8 km/h 42 % 0 mm
21:05 -5.9 °C -11.8 °C 34222.3 hPa ESE 5.1 km/h 5.1 km/h 51 % 0 mm
21:09 -4.3 °C -11.9 °C 34198.6 hPa West 16.6 km/h 16.6 km/h 42 % 0 mm
21:14 -4.3 °C -11.9 °C 34198.6 hPa West 17.9 km/h 17.9 km/h 42 % 0 mm
21:15 -6.1 °C -11.9 °C 34198.6 hPa ESE 5.1 km/h 5.1 km/h 51 % 0 mm
21:19 -4.3 °C -11.9 °C 34198.6 hPa West 17.9 km/h 17.9 km/h 42 % 0 mm
21:24 -4.3 °C -11.9 °C 34198.6 hPa SSW 6 km/h 6.8 km/h 42 % 0 mm
21:25 -6.3 °C -11.9 °C 34198.6 hPa ESE 5.1 km/h 5.1 km/h 52 % 0 mm
21:30 -4.3 °C -11.9 °C 34222.3 hPa SSW 6 km/h 6.8 km/h 42 % 0 mm
21:35 -4.3 °C -11.9 °C 34222.3 hPa SSW 6 km/h 6.8 km/h 42 % 0 mm
21:40 -4.3 °C -11.9 °C 34222.3 hPa SSW 6 km/h 6.8 km/h 42 % 0 mm
21:45 -4.3 °C -11.9 °C 34222.3 hPa SSW 6 km/h 6.8 km/h 42 % 0 mm
21:50 -4.3 °C -11.9 °C 34222.3 hPa SSW 6 km/h 6.8 km/h 42 % 0 mm
21:55 -4.3 °C -11.9 °C 34222.3 hPa SSW 6 km/h 6.8 km/h 42 % 0 mm
22:00 -4.3 °C -11.9 °C 34222.3 hPa SSW 6 km/h 6.8 km/h 42 % 0 mm
22:05 -4.3 °C -11.9 °C 34222.3 hPa SSW 6 km/h 6.8 km/h 42 % 0 mm
22:10 -4.3 °C -11.9 °C 34222.3 hPa SSW 6 km/h 6.8 km/h 42 % 0 mm
22:15 -4.3 °C -11.9 °C 34256.2 hPa SSW 6 km/h 6.8 km/h 42 % 0 mm
22:20 -4.3 °C -11.9 °C 34256.2 hPa SSW 6 km/h 6.8 km/h 42 % 0 mm
22:25 -4.3 °C -11.9 °C 34256.2 hPa SSW 6 km/h 6.8 km/h 42 % 0 mm
22:30 -4.3 °C -11.9 °C 34256.2 hPa SSW 6 km/h 6.8 km/h 42 % 0 mm
22:35 -5.2 °C -11.9 °C 34256.2 hPa SSW 6 km/h 6.8 km/h 46 % 0 mm
22:40 -5.2 °C -11.9 °C 34256.2 hPa SSW 6 km/h 6.8 km/h 46 % 0 mm
22:45 -5.2 °C -11.9 °C 34293.4 hPa SSW 6 km/h 6.8 km/h 46 % 0 mm
22:50 -5.2 °C -11.9 °C 34293.4 hPa SSW 6 km/h 6.8 km/h 46 % 0 mm
22:55 -5.2 °C -11.9 °C 34293.4 hPa SSW 6 km/h 6.8 km/h 46 % 0 mm
23:00 -5.2 °C -11.9 °C 34293.4 hPa SSW 6 km/h 6.8 km/h 46 % 0 mm
23:05 -6.6 °C -11.8 °C 34164.7 hPa Calm     55 % 0 mm
23:10 -5.2 °C -11.8 °C 34293.4 hPa WSW 6.3 km/h 6.3 km/h 47 % 0 mm
23:15 -5.3 °C -11.7 °C 34293.4 hPa WSW 6.3 km/h 6.3 km/h 48 % 0 mm
23:25 -5.3 °C -11.8 °C 34293.4 hPa WSW 6.3 km/h 6.3 km/h 48 % 0 mm
23:30 -5.3 °C -11.8 °C 34279.9 hPa WSW 2.6 km/h 5.1 km/h 48 % 0 mm
23:35 -5.4 °C -11.8 °C 34256.2 hPa WSW 6.3 km/h 6.3 km/h 48 % 0 mm
23:45 -5.5 °C -11.7 °C 34256.2 hPa WSW 6.3 km/h 6.3 km/h 49 % 0 mm
23:50 -5.5 °C -11.7 °C 34256.2 hPa WSW 2.6 km/h 5.1 km/h 49 % 0 mm
23:55 -5.5 °C -11.7 °C 34256.2 hPa WSW 2.6 km/h 5.1 km/h 49 % 0 mm
Meteo Sesrovires
Elogis d' Weather Underground - 3.5 mb

Guio original per  Jim McMurry - jmcmurry@mwt.net Adaptat per a la plantilla per  Wim van der Kuil - Leuven-Template.eu

Trobareu la nostra informacio del temps tambe a:

Weather Underground

AWEKAS